createdAt,value
2023-02-14T00:00:42.152Z,6.29
2023-02-14T00:04:05.492Z,6.28
2023-02-14T00:07:27.537Z,6.27
2023-02-14T00:10:49.235Z,6.27
2023-02-14T00:14:29.666Z,6.26
2023-02-14T00:17:53.084Z,6.28
2023-02-14T00:21:16.389Z,6.29
2023-02-14T00:24:37.903Z,6.29
2023-02-14T00:27:59.711Z,6.28
2023-02-14T00:31:23.445Z,6.28
2023-02-14T00:34:45.052Z,6.28
2023-02-14T00:38:08.173Z,6.28
2023-02-14T00:41:29.759Z,6.25
2023-02-14T00:44:51.136Z,6.25
2023-02-14T00:48:15.083Z,6.25
2023-02-14T00:51:37.026Z,6.27
2023-02-14T00:54:59.834Z,6.30
2023-02-14T00:58:21.537Z,6.28
2023-02-14T01:01:43.579Z,6.31
2023-02-14T01:05:05.358Z,6.30
2023-02-14T01:08:26.947Z,6.30
2023-02-14T01:11:49.824Z,6.30
2023-02-14T01:15:11.620Z,6.29
2023-02-14T01:18:33.851Z,6.29
2023-02-14T01:21:55.492Z,6.27
2023-02-14T01:25:17.267Z,6.25
2023-02-14T01:28:41.104Z,6.25
2023-02-14T01:32:03.050Z,6.23
2023-02-14T01:35:25.073Z,6.23
2023-02-14T01:38:47.202Z,6.22
2023-02-14T01:42:08.608Z,6.19
2023-02-14T01:45:32.501Z,6.16
2023-02-14T01:48:56.693Z,6.16
2023-02-14T01:52:22.352Z,6.15
2023-02-14T01:55:47.540Z,6.14
2023-02-14T01:59:14.103Z,6.14
2023-02-14T02:02:39.330Z,6.10
2023-02-14T02:06:12.418Z,6.10
2023-02-14T02:09:36.990Z,6.10
2023-02-14T02:13:05.907Z,6.07
2023-02-14T02:16:41.726Z,6.06
2023-02-14T02:20:29.693Z,6.06
2023-02-14T02:24:07.154Z,6.06
2023-02-14T02:27:52.464Z,6.04
2023-02-14T02:31:31.498Z,6.03
2023-02-14T02:35:16.837Z,6.00
2023-02-14T02:38:53.667Z,6.01
2023-02-14T02:42:25.924Z,6.02
2023-02-14T02:46:10.049Z,6.01
2023-02-14T02:49:58.455Z,6.02
2023-02-14T02:53:28.498Z,6.03
2023-02-14T02:56:56.072Z,6.00
2023-02-14T03:00:21.207Z,5.99
2023-02-14T03:04:05.484Z,5.94
2023-02-14T03:07:39.067Z,5.93
2023-02-14T03:11:06.817Z,5.92
2023-02-14T03:14:36.365Z,5.92
2023-02-14T03:18:05.891Z,5.94
2023-02-14T03:21:35.134Z,5.95
2023-02-14T03:25:04.939Z,5.96
2023-02-14T03:28:39.808Z,5.95
2023-02-14T03:32:06.589Z,5.95
2023-02-14T03:35:33.605Z,5.93
2023-02-14T03:39:03.305Z,5.92
2023-02-14T03:42:27.701Z,5.93
2023-02-14T03:45:57.801Z,5.92
2023-02-14T03:49:24.770Z,5.92
2023-02-14T03:52:50.388Z,5.93
2023-02-14T03:56:16.768Z,5.93
2023-02-14T03:59:38.556Z,5.93
2023-02-14T04:03:06.948Z,5.94
2023-02-14T04:06:28.721Z,5.93
2023-02-14T04:09:51.212Z,5.92
2023-02-14T04:13:12.479Z,5.90
2023-02-14T04:16:54.801Z,5.89
2023-02-14T04:20:16.436Z,5.89
2023-02-14T04:23:38.503Z,5.87
2023-02-14T04:27:11.124Z,5.84
2023-02-14T04:30:32.883Z,5.84
2023-02-14T04:33:54.587Z,5.82
2023-02-14T04:37:20.502Z,5.80
2023-02-14T04:40:42.231Z,5.82
2023-02-14T04:44:03.887Z,5.83
2023-02-14T04:47:26.072Z,5.83
2023-02-14T04:50:52.491Z,5.83
2023-02-14T04:54:15.403Z,5.82
2023-02-14T04:57:36.650Z,5.78
2023-02-14T05:00:58.954Z,5.78
2023-02-14T05:04:21.212Z,5.75
2023-02-14T05:07:47.592Z,5.74
2023-02-14T05:11:10.437Z,5.75
2023-02-14T05:14:32.070Z,5.76
2023-02-14T05:17:53.372Z,5.79
2023-02-14T05:21:15.087Z,5.79
2023-02-14T05:24:36.894Z,5.80
2023-02-14T05:28:00.198Z,5.77
2023-02-14T05:31:22.122Z,5.74
2023-02-14T05:34:43.751Z,5.74
2023-02-14T05:38:05.215Z,5.74
2023-02-14T05:41:27.097Z,5.75
2023-02-14T05:44:49.591Z,5.75
2023-02-14T05:48:10.737Z,5.78
2023-02-14T05:51:32.416Z,5.77
2023-02-14T05:54:54.220Z,5.75
2023-02-14T05:58:15.531Z,5.76
2023-02-14T06:01:38.643Z,5.75
2023-02-14T06:04:59.808Z,5.76
2023-02-14T06:08:21.246Z,5.76
2023-02-14T06:11:43.325Z,5.75
2023-02-14T06:15:05.112Z,5.73
2023-02-14T06:18:29.631Z,5.74
2023-02-14T06:21:51.180Z,5.71
2023-02-14T06:25:12.910Z,5.68
2023-02-14T06:28:34.659Z,5.66
2023-02-14T06:31:56.669Z,5.64
2023-02-14T06:35:19.726Z,5.64
2023-02-14T06:38:42.322Z,5.65
2023-02-14T06:42:03.907Z,5.62
2023-02-14T06:45:25.188Z,5.61
2023-02-14T06:48:47.029Z,5.60
2023-02-14T06:52:09.777Z,5.61
2023-02-14T06:55:31.362Z,5.64
2023-02-14T06:58:53.121Z,5.64
2023-02-14T07:02:15.190Z,5.64
2023-02-14T07:05:36.794Z,5.63
2023-02-14T07:08:59.656Z,5.64
2023-02-14T07:12:21.407Z,5.65
2023-02-14T07:15:43.222Z,5.67
2023-02-14T07:19:05.021Z,5.67
2023-02-14T07:22:28.617Z,5.68
2023-02-14T07:25:52.579Z,5.71
2023-02-14T07:29:14.356Z,5.73
2023-02-14T07:32:36.152Z,5.74
2023-02-14T07:35:57.804Z,5.73
2023-02-14T07:39:19.524Z,5.77
2023-02-14T07:42:42.627Z,5.78
2023-02-14T07:46:05.116Z,5.80
2023-02-14T07:49:27.318Z,5.83
2023-02-14T07:52:49.051Z,5.85
2023-02-14T07:56:10.810Z,5.86
2023-02-14T07:59:34.015Z,5.87
2023-02-14T08:02:56.802Z,5.90
2023-02-14T08:06:18.864Z,5.94
2023-02-14T08:09:40.804Z,5.93
2023-02-14T08:13:03.614Z,5.92
2023-02-14T08:16:26.790Z,5.93
2023-02-14T08:19:48.415Z,5.98
2023-02-14T08:23:10.693Z,5.98
2023-02-14T08:26:32.615Z,6.00
2023-02-14T08:29:54.383Z,6.04
2023-02-14T08:33:17.464Z,6.06
2023-02-14T08:36:39.187Z,6.07
2023-02-14T08:40:01.053Z,6.10
2023-02-14T08:43:22.827Z,6.14
2023-02-14T08:46:44.296Z,6.16
2023-02-14T08:50:09.516Z,6.19
2023-02-14T08:53:31.127Z,6.21
2023-02-14T08:56:52.865Z,6.27
2023-02-14T09:00:15.817Z,6.28
2023-02-14T09:03:38.510Z,6.32
2023-02-14T09:07:01.575Z,6.34
2023-02-14T09:10:23.779Z,6.36
2023-02-14T09:13:46.713Z,6.38
2023-02-14T09:17:09.161Z,6.40
2023-02-14T09:20:30.756Z,6.42
2023-02-14T09:23:53.658Z,6.43
2023-02-14T09:27:15.420Z,6.43
2023-02-14T09:30:37.343Z,6.45
2023-02-14T09:33:59.155Z,6.49
2023-02-14T09:37:37.943Z,6.51
2023-02-14T09:41:05.889Z,6.53
2023-02-14T09:44:33.417Z,6.55
2023-02-14T09:48:01.054Z,6.56
2023-02-14T09:51:26.802Z,6.61
2023-02-14T09:54:54.354Z,6.61
2023-02-14T09:58:23.487Z,6.65
2023-02-14T10:01:52.468Z,6.64
2023-02-14T10:05:18.031Z,6.64
2023-02-14T10:08:55.064Z,6.61
2023-02-14T10:12:24.111Z,6.58
2023-02-14T10:15:51.946Z,6.62
2023-02-14T10:19:19.740Z,6.64
2023-02-14T10:22:46.025Z,6.66
2023-02-14T10:26:12.451Z,6.69
2023-02-14T10:29:34.316Z,6.74
2023-02-14T10:33:05.512Z,6.74
2023-02-14T10:36:46.068Z,6.78
2023-02-14T10:40:36.283Z,6.80
2023-02-14T10:44:10.493Z,6.83
2023-02-14T10:47:40.309Z,6.84
2023-02-14T10:51:10.825Z,6.85
2023-02-14T10:54:39.053Z,6.85
2023-02-14T10:58:05.117Z,6.88
2023-02-14T11:01:26.834Z,6.92
2023-02-14T11:04:49.336Z,6.94
2023-02-14T11:08:25.254Z,6.94
2023-02-14T11:11:52.238Z,6.95
2023-02-14T11:15:24.705Z,6.95
2023-02-14T11:18:46.503Z,6.99
2023-02-14T11:22:10.138Z,7.00
2023-02-14T11:25:35.591Z,7.04
2023-02-14T11:29:00.306Z,7.06
2023-02-14T11:32:24.473Z,7.07
2023-02-14T11:35:53.016Z,7.08
2023-02-14T11:39:28.035Z,7.11
2023-02-14T11:42:54.636Z,7.10
2023-02-14T11:46:29.946Z,7.14
2023-02-14T11:50:02.676Z,7.17
2023-02-14T11:53:36.692Z,7.19
2023-02-14T11:57:10.302Z,7.19
2023-02-14T12:00:40.615Z,7.21
2023-02-14T12:04:08.812Z,7.24
2023-02-14T12:07:34.595Z,7.24
2023-02-14T12:11:04.374Z,7.25
2023-02-14T12:14:28.942Z,7.26
2023-02-14T12:18:00.085Z,7.27
2023-02-14T12:21:40.035Z,7.29
2023-02-14T12:25:11.383Z,7.34
2023-02-14T12:28:41.422Z,7.35
2023-02-14T12:32:13.042Z,7.36
2023-02-14T12:35:48.312Z,7.36
2023-02-14T12:39:17.540Z,7.38
2023-02-14T12:43:03.713Z,7.40
2023-02-14T12:46:44.994Z,7.42
2023-02-14T12:50:32.327Z,7.42
2023-02-14T12:54:08.663Z,7.41
2023-02-14T12:57:38.415Z,7.43
2023-02-14T13:01:24.677Z,7.44
2023-02-14T13:05:02.106Z,7.46
2023-02-14T13:08:38.608Z,7.49
2023-02-14T13:12:15.177Z,7.51
2023-02-14T13:15:46.376Z,7.50
2023-02-14T13:19:14.799Z,7.50
2023-02-14T13:22:37.784Z,7.51
2023-02-14T13:26:03.354Z,7.53
2023-02-14T13:29:29.747Z,7.52
2023-02-14T13:32:54.447Z,7.57
2023-02-14T13:36:16.834Z,7.59
2023-02-14T13:39:43.566Z,7.60
2023-02-14T13:43:06.078Z,7.59
2023-02-14T13:46:53.042Z,7.61
2023-02-14T13:50:22.066Z,7.59
2023-02-14T13:53:45.894Z,7.59
2023-02-14T13:57:28.001Z,7.61
2023-02-14T14:00:50.019Z,7.59
2023-02-14T14:04:37.382Z,7.57
2023-02-14T14:08:18.819Z,7.56
2023-02-14T14:12:00.690Z,7.54
2023-02-14T14:15:22.225Z,7.53
2023-02-14T14:18:44.184Z,7.52
2023-02-14T14:22:09.950Z,7.53
2023-02-14T14:25:32.728Z,7.57
2023-02-14T14:28:55.468Z,7.58
2023-02-14T14:32:21.574Z,7.60
2023-02-14T14:35:53.647Z,7.61
2023-02-14T14:39:29.411Z,7.62
2023-02-14T14:42:50.858Z,7.61
2023-02-14T14:46:15.817Z,7.63
2023-02-14T14:49:38.015Z,7.63
2023-02-14T14:53:03.154Z,7.60
2023-02-14T14:56:28.112Z,7.60
2023-02-14T14:59:50.391Z,7.60
2023-02-14T15:03:17.319Z,7.58
2023-02-14T15:06:39.477Z,7.57
2023-02-14T15:10:02.032Z,7.56
2023-02-14T15:13:51.029Z,7.52
2023-02-14T15:17:18.872Z,7.53
2023-02-14T15:20:41.852Z,7.50
2023-02-14T15:24:04.312Z,7.52
2023-02-14T15:27:27.664Z,7.55
2023-02-14T15:30:57.660Z,7.56
2023-02-14T15:34:26.038Z,7.57
2023-02-14T15:37:48.423Z,7.55
2023-02-14T15:41:11.152Z,7.57
2023-02-14T15:44:33.407Z,7.54
2023-02-14T15:47:58.366Z,7.52
2023-02-14T15:51:22.460Z,7.48
2023-02-14T15:54:46.467Z,7.45
2023-02-14T15:58:16.619Z,7.38
2023-02-14T16:01:39.428Z,7.35
2023-02-14T16:05:17.237Z,7.26
2023-02-14T16:08:40.269Z,7.18
2023-02-14T16:12:21.901Z,7.09
2023-02-14T16:15:57.959Z,7.00
2023-02-14T16:19:33.318Z,6.90
2023-02-14T16:23:15.709Z,6.79
2023-02-14T16:26:39.863Z,6.70
2023-02-14T16:30:01.288Z,6.60
2023-02-14T16:33:25.138Z,6.46
2023-02-14T16:36:46.665Z,6.34
2023-02-14T16:40:16.612Z,6.20
2023-02-14T16:43:38.299Z,6.09
2023-02-14T16:47:05.136Z,5.97
2023-02-14T16:50:26.569Z,5.84
2023-02-14T16:53:48.572Z,5.73
2023-02-14T16:57:18.580Z,5.62
2023-02-14T17:00:40.659Z,5.50
2023-02-14T17:04:02.491Z,5.39
2023-02-14T17:07:24.677Z,5.29
2023-02-14T17:10:48.626Z,5.21
2023-02-14T17:14:14.374Z,5.09
2023-02-14T17:17:37.410Z,4.98
2023-02-14T17:21:00.741Z,4.87
2023-02-14T17:24:22.825Z,4.79
2023-02-14T17:27:44.612Z,4.71
2023-02-14T17:31:08.218Z,4.61
2023-02-14T17:34:32.107Z,4.51
2023-02-14T17:37:53.722Z,4.42
2023-02-14T17:41:18.621Z,4.35
2023-02-14T17:44:40.664Z,4.25
2023-02-14T17:48:03.745Z,4.17
2023-02-14T17:51:26.282Z,4.11
2023-02-14T17:54:47.712Z,4.08
2023-02-14T17:58:09.500Z,4.03
2023-02-14T18:01:34.347Z,3.97
2023-02-14T18:04:57.715Z,3.91
2023-02-14T18:08:20.852Z,3.88
2023-02-14T18:11:44.435Z,3.79
2023-02-14T18:15:06.431Z,3.68
2023-02-14T18:18:27.784Z,3.59
2023-02-14T18:21:50.606Z,3.50
2023-02-14T18:25:12.510Z,3.43
2023-02-14T18:28:34.757Z,3.35
2023-02-14T18:31:56.539Z,3.21
2023-02-14T18:35:18.456Z,3.11
2023-02-14T18:38:42.284Z,3.02
2023-02-14T18:42:04.510Z,2.99
2023-02-14T18:45:26.129Z,2.91
2023-02-14T18:48:48.265Z,2.83
2023-02-14T18:52:09.611Z,2.78
2023-02-14T18:55:32.893Z,2.69
2023-02-14T18:58:57.477Z,2.62
2023-02-14T19:02:19.237Z,2.56
2023-02-14T19:05:40.915Z,2.53
2023-02-14T19:09:03.503Z,2.45
2023-02-14T19:12:26.608Z,2.37
2023-02-14T19:15:48.728Z,2.29
2023-02-14T19:19:10.628Z,2.26
2023-02-14T19:22:32.875Z,2.21
2023-02-14T19:25:54.780Z,2.14
2023-02-14T19:29:19.580Z,2.05
2023-02-14T19:32:41.394Z,1.97
2023-02-14T19:36:05.513Z,1.96
2023-02-14T19:39:29.436Z,1.88
2023-02-14T19:42:51.393Z,1.84
2023-02-14T19:46:15.225Z,1.78
2023-02-14T19:49:38.589Z,1.75
2023-02-14T19:53:00.123Z,1.70
2023-02-14T19:56:22.398Z,1.64
2023-02-14T19:59:43.828Z,1.57
2023-02-14T20:03:07.229Z,1.52
2023-02-14T20:06:29.439Z,1.49
2023-02-14T20:09:51.306Z,1.53
2023-02-14T20:13:13.208Z,1.50
2023-02-14T20:16:36.553Z,1.54
2023-02-14T20:19:59.966Z,1.52
2023-02-14T20:23:21.384Z,1.49
2023-02-14T20:26:43.016Z,1.45
2023-02-14T20:30:04.983Z,1.42
2023-02-14T20:33:26.626Z,1.46
2023-02-14T20:36:53.026Z,1.48
2023-02-14T20:40:15.929Z,1.48
2023-02-14T20:43:38.357Z,1.44
2023-02-14T20:46:59.962Z,1.38
2023-02-14T20:50:21.753Z,1.33
2023-02-14T20:53:45.945Z,1.26
2023-02-14T20:57:07.816Z,1.28
2023-02-14T21:00:29.898Z,1.23
2023-02-14T21:03:53.265Z,1.19
2023-02-14T21:07:14.961Z,1.16
2023-02-14T21:10:37.630Z,1.14
2023-02-14T21:14:00.636Z,1.11
2023-02-14T21:17:22.330Z,1.08
2023-02-14T21:20:43.897Z,1.11
2023-02-14T21:24:07.876Z,1.10
2023-02-14T21:27:31.348Z,1.10
2023-02-14T21:30:53.107Z,1.09
2023-02-14T21:34:16.056Z,1.10
2023-02-14T21:37:37.779Z,1.12
2023-02-14T21:41:04.835Z,1.17
2023-02-14T21:44:45.627Z,1.20
2023-02-14T21:48:24.667Z,1.24
2023-02-14T21:51:47.130Z,1.24
2023-02-14T21:55:09.357Z,1.27
2023-02-14T21:58:31.027Z,1.32
2023-02-14T22:01:54.231Z,1.34
2023-02-14T22:05:16.196Z,1.35
2023-02-14T22:08:37.983Z,1.36
2023-02-14T22:11:59.556Z,1.37
2023-02-14T22:15:20.782Z,1.40
2023-02-14T22:18:44.684Z,1.40
2023-02-14T22:22:06.666Z,1.36
2023-02-14T22:25:28.083Z,1.34
2023-02-14T22:28:50.866Z,1.36
2023-02-14T22:32:12.737Z,1.35
2023-02-14T22:35:35.779Z,1.33
2023-02-14T22:38:57.566Z,1.34
2023-02-14T22:42:18.792Z,1.34
2023-02-14T22:45:40.765Z,1.34
2023-02-14T22:49:02.433Z,1.36
2023-02-14T22:52:25.114Z,1.33
2023-02-14T22:55:46.515Z,1.30
2023-02-14T22:59:14.437Z,1.34
2023-02-14T23:02:35.984Z,1.32
2023-02-14T23:05:57.955Z,1.40
2023-02-14T23:09:21.134Z,1.43
2023-02-14T23:13:00.092Z,1.47
2023-02-14T23:16:39.122Z,1.47
2023-02-14T23:20:18.098Z,1.48
2023-02-14T23:23:39.712Z,1.51
2023-02-14T23:27:03.443Z,1.49
2023-02-14T23:30:24.810Z,1.49
2023-02-14T23:33:46.866Z,1.43
2023-02-14T23:37:09.733Z,1.40
2023-02-14T23:40:51.363Z,1.39
2023-02-14T23:44:14.372Z,1.34
2023-02-14T23:47:36.448Z,1.29
2023-02-14T23:51:00.389Z,1.24
2023-02-14T23:54:23.968Z,1.18
2023-02-14T23:57:46.094Z,1.11
